Time;durP1;ratioP1;P1;durP2;ratioP2;P2;SDS_P1;SDS_P2;PMS_P1;PMS_P2;Temp;Humidity;BMP_temperature;BMP_pressure;BME280_temperature;BME280_humidity;BME280_pressure;Samples;Min_cycle;Max_cycle;Signal;HPM_P1;HPM_P2
2023/07/03 00:00:45;;;;;;;12.80;4.00;;;;;;;16.97;55.20;100787.84;3551603;40;20066;-62
2023/07/03 00:03:13;;;;;;;9.52;3.90;;;;;;;16.98;55.03;100794.13;3551775;40;20080;-62
2023/07/03 00:05:46;;;;;;;14.48;3.78;;;;;;;16.81;55.46;100771.19;3553145;40;20110;-64
2023/07/03 00:08:15;;;;;;;14.18;4.03;;;;;;;16.93;54.99;100781.81;3553223;40;20402;-62
2023/07/03 00:10:41;;;;;;;14.60;4.07;;;;;;;16.80;55.09;100755.91;3553171;40;20315;-62
2023/07/03 00:13:08;;;;;;;13.18;3.83;;;;;;;16.96;55.48;100780.69;3553346;40;20060;-62
2023/07/03 00:15:34;;;;;;;11.68;3.92;;;;;;;16.93;55.72;100779.09;3553165;40;20061;-65
2023/07/03 00:17:59;;;;;;;13.23;3.83;;;;;;;16.98;55.58;100775.97;3553530;40;20312;-64
2023/07/03 00:20:27;;;;;;;15.85;4.55;;;;;;;16.96;55.66;100777.09;3553249;40;20395;-62
2023/07/03 00:22:54;;;;;;;12.35;3.90;;;;;;;16.92;55.65;100769.22;3553716;40;20058;-64
2023/07/03 00:25:21;;;;;;;13.85;4.10;;;;;;;16.93;56.07;100776.38;3554216;40;20461;-64
2023/07/03 00:27:48;;;;;;;12.63;4.40;;;;;;;16.76;55.83;100747.16;3552107;40;20393;-64
2023/07/03 00:30:15;;;;;;;15.93;4.32;;;;;;;16.89;56.33;100783.09;3552854;40;20339;-64
2023/07/03 00:32:41;;;;;;;14.05;3.90;;;;;;;16.90;56.43;100775.78;3552421;40;20384;-64
2023/07/03 00:35:08;;;;;;;14.05;4.18;;;;;;;16.82;56.34;100762.91;3552876;40;20065;-64
2023/07/03 00:37:35;;;;;;;10.73;4.38;;;;;;;16.77;56.40;100759.75;3552659;40;20053;-64
2023/07/03 00:40:01;;;;;;;16.33;4.43;;;;;;;16.85;56.93;100772.66;3551825;40;20166;-65
2023/07/03 00:42:29;;;;;;;12.30;4.10;;;;;;;16.67;56.55;100742.53;3552299;40;20061;-64
2023/07/03 00:44:55;;;;;;;14.75;4.47;;;;;;;16.82;57.00;100773.78;3554489;40;20159;-64
2023/07/03 00:47:23;;;;;;;13.73;3.90;;;;;;;16.81;56.59;100777.50;3553121;40;20415;-64
2023/07/03 00:49:50;;;;;;;15.68;4.40;;;;;;;16.85;56.44;100767.22;3552529;40;20413;-64
2023/07/03 00:52:16;;;;;;;15.45;4.18;;;;;;;16.80;56.78;100764.91;3553786;40;20056;-64
2023/07/03 00:54:42;;;;;;;16.52;4.28;;;;;;;16.78;57.34;100766.03;3553188;40;20088;-64
2023/07/03 00:57:13;;;;;;;15.13;3.78;;;;;;;16.73;57.12;100765.56;3553601;40;20057;-63
2023/07/03 00:59:40;;;;;;;12.20;4.03;;;;;;;16.75;57.13;100769.91;3550955;40;20139;-64
2023/07/03 01:02:25;;;;;;;19.55;4.45;;;;;;;16.62;57.74;100745.66;3553722;40;20065;-65
2023/07/03 01:05:13;;;;;;;16.55;4.43;;;;;;;16.75;57.50;100763.56;3553464;40;20490;-64
2023/07/03 01:07:40;;;;;;;17.65;4.30;;;;;;;16.75;58.11;100763.56;3550991;40;20126;-64
2023/07/03 01:10:22;;;;;;;14.88;4.03;;;;;;;16.68;57.67;100755.09;3553416;40;20065;-63
2023/07/03 01:13:05;;;;;;;15.65;4.47;;;;;;;16.70;57.88;100763.97;3553333;40;21119;-64
2023/07/03 01:15:40;;;;;;;20.25;4.55;;;;;;;16.64;58.12;100756.38;3553093;40;20063;-65
2023/07/03 01:18:09;;;;;;;12.48;3.75;;;;;;;16.62;58.86;100761.94;3552180;40;20618;-64
2023/07/03 01:21:00;;;;;;;17.35;4.38;;;;;;;16.58;58.79;100748.75;3551765;40;20052;-64
2023/07/03 01:23:38;;;;;;;16.88;4.05;;;;;;;16.59;58.96;100761.38;3551681;40;20068;-63
2023/07/03 01:26:07;;;;;;;16.27;4.32;;;;;;;16.59;58.57;100755.94;3550308;40;20286;-64
2023/07/03 01:28:36;;;;;;;14.50;3.92;;;;;;;16.52;59.54;100750.16;3552087;40;20478;-64
2023/07/03 01:31:07;;;;;;;14.88;3.65;;;;;;;16.51;59.23;100764.72;3551390;40;20057;-64
2023/07/03 01:33:40;;;;;;;16.38;4.20;;;;;;;16.50;59.67;100759.47;3551103;40;20057;-64
2023/07/03 01:36:11;;;;;;;17.08;4.50;;;;;;;16.45;59.80;100752.56;3552944;40;20143;-64
2023/07/03 01:38:43;;;;;;;14.48;4.60;;;;;;;16.44;60.09;100758.97;3551951;40;20128;-64
2023/07/03 01:41:13;;;;;;;16.67;4.60;;;;;;;16.43;59.90;100765.41;3552407;40;20068;-63
2023/07/03 01:43:40;;;;;;;16.10;4.25;;;;;;;16.42;60.38;100760.97;3551987;40;20958;-64
2023/07/03 01:46:08;;;;;;;12.82;4.10;;;;;;;16.39;60.61;100753.09;3551138;40;20319;-63
2023/07/03 01:48:34;;;;;;;14.75;4.45;;;;;;;16.35;60.53;100756.22;3550701;40;20187;-65
2023/07/03 01:51:07;;;;;;;13.95;3.88;;;;;;;16.37;60.66;100757.81;3552950;40;20061;-64
2023/07/03 01:53:48;;;;;;;21.17;4.57;;;;;;;16.30;61.23;100756.63;3550674;40;20054;-64
2023/07/03 01:56:32;;;;;;;14.98;4.18;;;;;;;16.26;61.27;100752.44;3542264;40;21775;-64
2023/07/03 01:59:10;;;;;;;21.40;5.35;;;;;;;16.21;61.32;100757.44;3551540;40;20057;-64
2023/07/03 02:02:03;;;;;;;18.38;5.28;;;;;;;16.18;61.69;100753.13;3551583;40;20065;-64
2023/07/03 02:04:57;;;;;;;21.48;4.97;;;;;;;16.10;62.42;100742.06;3551482;40;21076;-61
2023/07/03 02:07:28;;;;;;;15.88;4.93;;;;;;;16.18;62.16;100750.41;3551156;40;20046;-61
2023/07/03 02:09:55;;;;;;;17.58;4.15;;;;;;;16.18;62.50;100747.69;3549640;40;20057;-62
2023/07/03 02:12:20;;;;;;;18.20;5.10;;;;;;;16.17;62.50;100745.09;3550690;40;20065;-63
2023/07/03 02:14:46;;;;;;;16.60;4.43;;;;;;;16.14;62.60;100751.69;3548808;40;20097;-63
2023/07/03 02:17:12;;;;;;;16.77;5.03;;;;;;;16.13;63.28;100751.78;3553010;40;20063;-61
2023/07/03 02:19:37;;;;;;;13.82;4.22;;;;;;;16.09;63.37;100747.63;3551569;40;20061;-63
2023/07/03 02:22:04;;;;;;;18.80;4.38;;;;;;;16.04;63.98;100744.44;3551702;40;20071;-63
2023/07/03 02:24:30;;;;;;;16.85;5.18;;;;;;;16.04;64.11;100744.44;3551277;40;20068;-63
2023/07/03 02:26:55;;;;;;;16.55;4.72;;;;;;;16.00;64.33;100744.72;3549959;40;20391;-63
2023/07/03 02:29:21;;;;;;;18.35;5.60;;;;;;;15.96;65.10;100743.28;3553517;40;20056;-61
2023/07/03 02:31:47;;;;;;;17.35;5.05;;;;;;;15.86;65.15;100731.50;3551871;40;20359;-61
2023/07/03 02:34:12;;;;;;;20.98;5.25;;;;;;;15.92;65.46;100739.13;3552390;40;20363;-61
2023/07/03 02:36:40;;;;;;;20.90;5.70;;;;;;;15.86;66.03;100734.22;3551136;40;20073;-62
2023/07/03 02:39:07;;;;;;;20.25;5.18;;;;;;;15.87;65.94;100738.63;3552683;40;20064;-61
2023/07/03 02:41:33;;;;;;;21.70;5.15;;;;;;;15.82;66.28;100730.03;3550210;40;20088;-61
2023/07/03 02:43:59;;;;;;;15.45;4.55;;;;;;;15.80;66.47;100732.03;3551013;40;20350;-63
2023/07/03 02:46:25;;;;;;;20.35;4.88;;;;;;;15.82;66.88;100723.75;3552401;40;20414;-62
2023/07/03 02:48:51;;;;;;;25.02;5.50;;;;;;;15.68;67.32;100711.38;3550228;40;20055;-63
2023/07/03 02:51:18;;;;;;;19.67;4.68;;;;;;;15.81;67.10;100727.47;3553580;40;20053;-62
2023/07/03 02:53:43;;;;;;;17.40;4.55;;;;;;;15.77;67.67;100729.56;3551327;40;20064;-62
2023/07/03 02:56:10;;;;;;;21.88;5.32;;;;;;;15.72;67.82;100734.50;3550961;40;21242;-63
2023/07/03 02:58:36;;;;;;;18.55;5.10;;;;;;;15.67;68.16;100729.50;3551661;40;20061;-62
2023/07/03 03:01:02;;;;;;;25.00;5.38;;;;;;;15.63;68.31;100725.28;3553392;40;20392;-63
2023/07/03 03:03:29;;;;;;;17.48;4.53;;;;;;;15.62;68.70;100726.28;3549888;40;20539;-62
2023/07/03 03:05:56;;;;;;;15.68;4.47;;;;;;;15.42;68.87;100694.59;3549096;40;20105;-62
2023/07/03 03:08:23;;;;;;;24.38;5.47;;;;;;;15.33;69.22;100690.81;3552269;40;20052;-61
2023/07/03 03:10:51;;;;;;;17.23;4.97;;;;;;;15.53;69.33;100729.75;3543830;40;20065;-62
2023/07/03 03:13:17;;;;;;;18.80;5.28;;;;;;;15.52;69.78;100728.03;3551497;40;20064;-62
2023/07/03 03:15:43;;;;;;;19.33;4.63;;;;;;;15.42;69.89;100710.84;3549264;40;20094;-63
2023/07/03 03:18:10;;;;;;;20.55;5.00;;;;;;;15.48;70.04;100727.44;3550367;40;20128;-62
2023/07/03 03:20:36;;;;;;;17.77;5.20;;;;;;;15.50;70.50;100720.03;3550793;40;20064;-62
2023/07/03 03:23:01;;;;;;;20.80;5.28;;;;;;;15.53;70.40;100727.03;3549295;40;20410;-62
2023/07/03 03:25:27;;;;;;;21.42;5.38;;;;;;;15.51;70.73;100727.19;3549287;40;20105;-63
2023/07/03 03:27:55;;;;;;;21.65;5.38;;;;;;;15.49;71.22;100717.47;3551529;40;20066;-63
2023/07/03 03:30:21;;;;;;;23.17;6.22;;;;;;;15.54;71.24;100724.22;3551224;40;20053;-62
2023/07/03 03:32:46;;;;;;;23.33;5.85;;;;;;;15.50;71.36;100719.19;3549735;40;20068;-62
2023/07/03 03:35:12;;;;;;;23.98;5.72;;;;;;;15.50;71.49;100725.44;3549515;40;20065;-63
2023/07/03 03:37:38;;;;;;;26.40;5.97;;;;;;;15.46;71.45;100718.59;3550572;40;20069;-62
2023/07/03 03:40:07;;;;;;;23.00;5.90;;;;;;;15.33;71.94;100709.78;3552168;40;20068;-62
2023/07/03 03:42:33;;;;;;;24.40;5.85;;;;;;;15.45;72.11;100727.72;3550136;40;20133;-62
2023/07/03 03:44:59;;;;;;;24.42;6.35;;;;;;;15.39;72.24;100717.38;3552595;40;20049;-62
2023/07/03 03:47:25;;;;;;;21.55;5.72;;;;;;;15.36;72.48;100711.38;3551492;40;20056;-62
2023/07/03 03:49:52;;;;;;;21.92;6.07;;;;;;;15.35;72.84;100715.94;3549917;40;20057;-63
2023/07/03 03:52:18;;;;;;;21.13;5.78;;;;;;;15.36;72.72;100720.34;3551452;40;20127;-63
2023/07/03 03:54:43;;;;;;;23.75;5.68;;;;;;;15.37;73.35;100719.34;3549671;40;20065;-63
2023/07/03 03:57:09;;;;;;;19.52;5.25;;;;;;;15.41;73.24;100720.81;3549490;40;20397;-62
2023/07/03 03:59:34;;;;;;;24.35;6.00;;;;;;;15.47;73.15;100722.16;3549295;40;20073;-63
2023/07/03 04:02:00;;;;;;;19.92;5.30;;;;;;;15.43;72.91;100729.66;3551439;40;20323;-63
2023/07/03 04:04:26;;;;;;;22.63;6.05;;;;;;;15.43;73.58;100728.81;3551127;40;20073;-63
2023/07/03 04:06:52;;;;;;;19.63;5.15;;;;;;;15.42;73.19;100725.25;3551433;40;20308;-63
2023/07/03 04:09:18;;;;;;;21.40;6.28;;;;;;;15.24;73.63;100684.31;3552023;40;20386;-63
2023/07/03 04:11:43;;;;;;;25.10;5.97;;;;;;;15.46;73.31;100724.00;3551034;40;20096;-63
2023/07/03 04:14:09;;;;;;;21.63;5.93;;;;;;;15.50;73.70;100727.31;3549615;40;20104;-63
2023/07/03 04:16:36;;;;;;;19.27;5.57;;;;;;;15.51;73.49;100721.78;3549899;40;20257;-63
2023/07/03 04:19:02;;;;;;;22.02;6.18;;;;;;;15.50;73.45;100735.44;3550391;40;20317;-63
2023/07/03 04:21:27;;;;;;;21.50;5.57;;;;;;;15.48;73.67;100724.75;3550093;40;20088;-63
2023/07/03 04:23:53;;;;;;;20.60;6.00;;;;;;;15.47;73.99;100725.72;3548764;40;20067;-63
2023/07/03 04:26:20;;;;;;;20.08;5.80;;;;;;;15.45;74.17;100725.00;3552952;40;20056;-63
2023/07/03 04:28:45;;;;;;;22.55;5.53;;;;;;;15.55;74.01;100725.94;3551243;40;20782;-62
2023/07/03 04:31:11;;;;;;;22.50;6.15;;;;;;;15.56;74.16;100730.34;3550190;40;20137;-63
2023/07/03 04:33:36;;;;;;;21.65;6.38;;;;;;;15.59;73.88;100726.53;3550249;40;20068;-63
2023/07/03 04:36:02;;;;;;;22.45;6.03;;;;;;;15.61;74.22;100731.84;3551125;40;20691;-63
2023/07/03 04:38:28;;;;;;;19.40;5.55;;;;;;;15.61;74.31;100726.41;3550251;40;20060;-63
2023/07/03 04:40:54;;;;;;;22.50;6.22;;;;;;;15.65;73.78;100733.28;3551563;40;20337;-63
2023/07/03 04:43:20;;;;;;;20.48;5.65;;;;;;;15.66;74.19;100726.88;3550329;40;20065;-63
2023/07/03 04:45:51;;;;;;;22.08;5.82;;;;;;;15.67;73.84;100729.50;3552035;40;20061;-63
2023/07/03 04:48:18;;;;;;;23.17;5.93;;;;;;;15.69;73.94;100734.78;3552915;40;20065;-63
2023/07/03 04:50:48;;;;;;;25.45;5.85;;;;;;;15.74;73.84;100738.81;3546584;40;20239;-63
2023/07/03 04:53:16;;;;;;;21.60;5.72;;;;;;;15.81;74.00;100732.88;3551791;40;20053;-63
2023/07/03 04:55:42;;;;;;;21.77;5.70;;;;;;;15.86;73.36;100731.50;3551679;40;20352;-63
2023/07/03 04:58:09;;;;;;;21.98;5.75;;;;;;;15.88;73.09;100729.50;3552734;40;20061;-63
2023/07/03 05:00:35;;;;;;;24.63;6.50;;;;;;;15.97;72.77;100749.53;3551789;40;20049;-63
2023/07/03 05:03:03;;;;;;;23.35;5.93;;;;;;;15.98;72.76;100745.84;3552701;40;20067;-64
2023/07/03 05:05:29;;;;;;;21.45;6.43;;;;;;;16.01;72.95;100732.88;3551323;40;20056;-63
2023/07/03 05:07:55;;;;;;;18.25;5.53;;;;;;;16.11;72.61;100745.63;3551459;40;20069;-63
2023/07/03 05:10:23;;;;;;;23.92;6.35;;;;;;;16.14;72.33;100746.25;3551007;40;20301;-62
2023/07/03 05:12:50;;;;;;;21.20;6.07;;;;;;;15.90;71.96;100702.28;3552074;40;20450;-63
2023/07/03 05:15:19;;;;;;;18.20;5.85;;;;;;;16.21;71.79;100757.44;3550608;40;20058;-63
2023/07/03 05:17:51;;;;;;;21.15;5.47;;;;;;;16.25;71.52;100764.31;3550990;40;20064;-63
2023/07/03 05:20:18;;;;;;;20.45;6.18;;;;;;;16.10;71.54;100727.66;3550500;40;20065;-63
2023/07/03 05:22:45;;;;;;;22.05;5.95;;;;;;;16.33;71.99;100760.91;3553195;40;20340;-63
2023/07/03 05:25:14;;;;;;;20.63;6.35;;;;;;;16.41;71.42;100767.41;3551858;40;20143;-63
2023/07/03 05:27:40;;;;;;;17.73;5.82;;;;;;;16.47;71.20;100766.00;3549581;40;20091;-63
2023/07/03 05:30:09;;;;;;;19.85;6.50;;;;;;;16.52;70.93;100766.44;3550416;40;20053;-63
2023/07/03 05:32:35;;;;;;;22.40;6.00;;;;;;;16.64;70.33;100769.94;3553638;40;20098;-62
2023/07/03 05:35:04;;;;;;;22.83;5.35;;;;;;;16.66;70.60;100765.25;3551314;40;20423;-61
2023/07/03 05:37:30;;;;;;;20.83;5.13;;;;;;;16.70;69.92;100770.25;3551183;40;20335;-62
2023/07/03 05:39:56;;;;;;;23.42;5.88;;;;;;;16.81;69.68;100777.50;3554435;40;20065;-61
2023/07/03 05:42:23;;;;;;;18.85;5.38;;;;;;;16.79;69.62;100768.63;3550740;40;20068;-62
2023/07/03 05:44:48;;;;;;;18.77;5.75;;;;;;;16.85;69.26;100772.66;3550215;40;20695;-62
2023/07/03 05:47:15;;;;;;;22.55;5.85;;;;;;;16.84;69.05;100779.94;3550259;40;20060;-62
2023/07/03 05:49:42;;;;;;;20.08;5.88;;;;;;;16.87;69.31;100776.94;3549176;40;20068;-62
2023/07/03 05:52:10;;;;;;;20.08;5.90;;;;;;;16.90;69.30;100782.09;3552506;40;20084;-62
2023/07/03 05:54:36;;;;;;;19.15;5.22;;;;;;;16.97;69.42;100776.97;3550708;40;20111;-62
2023/07/03 05:57:06;;;;;;;23.23;5.88;;;;;;;16.98;68.31;100778.69;3552331;40;20729;-62
2023/07/03 05:59:34;;;;;;;19.77;5.55;;;;;;;16.98;68.34;100778.69;3550519;40;20428;-62
2023/07/03 06:02:05;;;;;;;21.27;6.10;;;;;;;17.01;68.77;100785.72;3550849;40;20061;-62
2023/07/03 06:04:33;;;;;;;17.08;5.97;;;;;;;16.99;68.65;100777.69;3550120;40;20127;-62
2023/07/03 06:07:00;;;;;;;20.17;5.80;;;;;;;17.08;68.28;100781.44;3551895;40;20059;-62
2023/07/03 06:09:28;;;;;;;16.73;5.07;;;;;;;17.12;68.24;100777.44;3551197;40;20803;-62
2023/07/03 06:11:55;;;;;;;17.02;5.78;;;;;;;17.16;68.06;100777.03;3552706;40;20115;-62
2023/07/03 06:14:23;;;;;;;18.55;5.50;;;;;;;17.26;68.18;100776.22;3549555;40;20129;-62
2023/07/03 06:16:49;;;;;;;17.65;5.30;;;;;;;17.31;67.88;100774.78;3551660;40;20344;-61
2023/07/03 06:19:18;;;;;;;19.92;5.30;;;;;;;17.40;67.74;100782.09;3550517;40;20077;-63
2023/07/03 06:21:44;;;;;;;18.73;5.35;;;;;;;17.47;67.54;100778.81;3551235;40;20060;-62
2023/07/03 06:24:13;;;;;;;18.08;4.80;;;;;;;17.49;66.32;100777.69;3549924;40;20154;-62
2023/07/03 06:26:40;;;;;;;15.13;5.45;;;;;;;17.53;66.26;100783.69;3550628;40;20057;-62
2023/07/03 06:29:08;;;;;;;20.30;5.57;;;;;;;17.56;65.94;100789.69;3550979;40;20319;-62
2023/07/03 06:31:34;;;;;;;18.55;5.45;;;;;;;17.59;65.74;100792.13;3550516;40;20055;-62
2023/07/03 06:34:01;;;;;;;16.25;5.40;;;;;;;17.62;65.66;100796.44;3551882;40;20570;-62
2023/07/03 06:36:27;;;;;;;19.10;5.63;;;;;;;17.64;65.05;100786.28;3549670;40;20061;-62
2023/07/03 06:38:58;;;;;;;19.50;5.20;;;;;;;17.70;64.62;100790.31;3551355;40;20053;-62
2023/07/03 06:41:28;;;;;;;17.15;5.05;;;;;;;17.69;65.23;100788.56;3551934;40;20064;-62
2023/07/03 06:43:55;;;;;;;19.83;4.88;;;;;;;17.70;64.25;100785.72;3549296;40;20093;-62
2023/07/03 06:46:20;;;;;;;16.77;4.75;;;;;;;17.76;64.12;100789.72;3551066;40;20055;-62
2023/07/03 06:48:46;;;;;;;18.30;5.15;;;;;;;17.77;64.48;100792.34;3548792;40;20077;-62
2023/07/03 06:51:13;;;;;;;18.13;5.32;;;;;;;17.79;64.05;100773.16;3552472;40;20438;-62
2023/07/03 06:53:40;;;;;;;20.17;4.47;;;;;;;17.86;64.28;100775.16;3551749;40;20492;-62
2023/07/03 06:56:08;;;;;;;19.17;4.80;;;;;;;17.86;63.21;100775.16;3551675;40;20061;-62
2023/07/03 06:58:36;;;;;;;16.30;5.20;;;;;;;17.92;63.21;100789.16;3548257;40;20217;-62
2023/07/03 07:01:12;;;;;;;15.55;4.55;;;;;;;17.98;63.55;100775.88;3551122;40;20049;-63
2023/07/03 07:03:39;;;;;;;14.15;5.05;;;;;;;18.03;62.69;100786.31;3550833;40;20400;-62
2023/07/03 07:06:17;;;;;;;19.27;4.95;;;;;;;18.07;61.76;100798.63;3551884;40;20058;-62
2023/07/03 07:08:44;;;;;;;18.65;5.18;;;;;;;18.10;62.65;100801.91;3550860;40;20057;-62
2023/07/03 07:11:14;;;;;;;16.40;4.85;;;;;;;18.16;61.54;100803.19;3550996;40;20063;-62
2023/07/03 07:13:45;;;;;;;20.45;4.78;;;;;;;18.25;61.51;100802.34;3551122;40;20483;-62
2023/07/03 07:16:21;;;;;;;15.45;4.78;;;;;;;18.44;61.57;100792.44;3551479;40;20061;-62
2023/07/03 07:18:50;;;;;;;19.30;5.13;;;;;;;18.49;59.86;100787.38;3550096;40;20538;-62
2023/07/03 07:21:19;;;;;;;16.75;5.13;;;;;;;18.55;58.94;100803.13;3551987;40;20308;-62
2023/07/03 07:23:59;;;;;;;15.43;4.68;;;;;;;18.51;59.20;100804.44;3550819;40;20667;-62
2023/07/03 07:26:32;;;;;;;17.90;5.28;;;;;;;18.60;58.34;100799.97;3549704;40;20422;-62
2023/07/03 07:28:58;;;;;;;16.58;5.18;;;;;;;18.76;57.58;100798.38;3550799;40;20174;-62
2023/07/03 07:31:27;;;;;;;19.42;5.00;;;;;;;19.00;58.44;100802.47;3550995;40;20163;-62
2023/07/03 07:33:53;;;;;;;13.70;4.32;;;;;;;19.10;57.26;100795.09;3543502;40;20054;-63
2023/07/03 07:36:26;;;;;;;21.30;5.75;;;;;;;19.16;56.82;100786.31;3550234;40;20062;-62
2023/07/03 07:38:53;;;;;;;13.70;4.38;;;;;;;19.05;57.59;100775.59;3551263;40;20178;-62
2023/07/03 07:41:20;;;;;;;14.48;4.70;;;;;;;18.76;57.06;100741.19;3551026;40;20135;-62
2023/07/03 07:43:48;;;;;;;15.77;4.25;;;;;;;19.25;57.00;100807.22;3552036;40;20155;-62
2023/07/03 07:46:15;;;;;;;17.95;4.68;;;;;;;19.47;55.05;100807.78;3552558;40;20135;-62
2023/07/03 07:48:40;;;;;;;18.98;4.68;;;;;;;19.66;55.22;100801.38;3551994;40;20073;-63
2023/07/03 07:51:11;;;;;;;16.48;4.10;;;;;;;19.77;53.61;100814.81;3551330;40;20297;-62
2023/07/03 07:53:38;;;;;;;15.40;4.30;;;;;;;19.83;53.13;100816.06;3550562;40;20065;-62
2023/07/03 07:56:08;;;;;;;13.02;4.22;;;;;;;19.73;53.29;100816.13;3549785;40;20068;-63
2023/07/03 07:58:34;;;;;;;13.38;4.38;;;;;;;19.76;53.15;100814.94;3549962;40;20304;-62
2023/07/03 08:01:01;;;;;;;11.73;3.88;;;;;;;19.79;52.21;100818.25;3552855;40;20061;-63
2023/07/03 08:03:27;;;;;;;13.13;4.00;;;;;;;19.90;52.10;100825.31;3552450;40;20399;-63
2023/07/03 08:06:03;;;;;;;18.85;4.15;;;;;;;19.94;52.25;100818.53;3551298;40;20069;-63
2023/07/03 08:08:31;;;;;;;12.57;3.15;;;;;;;19.92;51.24;100826.03;3550540;40;20088;-62
2023/07/03 08:11:00;;;;;;;16.33;4.03;;;;;;;19.83;51.09;100829.69;3549649;40;20073;-63
2023/07/03 08:13:28;;;;;;;17.75;4.65;;;;;;;19.71;51.12;100834.50;3548647;40;20096;-63
2023/07/03 08:15:54;;;;;;;15.18;3.65;;;;;;;19.66;50.60;100843.16;3551669;40;20053;-62
2023/07/03 08:18:21;;;;;;;13.13;3.85;;;;;;;19.52;51.45;100838.19;3550466;40;20066;-62
2023/07/03 08:20:49;;;;;;;12.88;3.80;;;;;;;19.55;51.78;100831.56;3552090;40;20065;-62
2023/07/03 08:23:15;;;;;;;11.32;3.60;;;;;;;19.44;52.41;100843.53;3551731;40;20068;-62
2023/07/03 08:25:41;;;;;;;12.40;3.75;;;;;;;19.35;51.76;100844.47;3553135;40;20103;-63
2023/07/03 08:28:08;;;;;;;14.00;3.42;;;;;;;19.36;51.93;100840.72;3551115;40;20377;-62
2023/07/03 08:30:33;;;;;;;13.98;3.70;;;;;;;19.42;52.88;100842.84;3551906;40;20297;-62
2023/07/03 08:32:59;;;;;;;14.50;4.10;;;;;;;19.54;52.36;100843.50;3551570;40;20079;-62
2023/07/03 08:35:25;;;;;;;16.75;4.10;;;;;;;19.70;51.84;100839.13;3553606;40;20092;-62
2023/07/03 08:37:52;;;;;;;15.77;4.18;;;;;;;19.86;51.61;100851.22;3550990;40;20439;-62
2023/07/03 08:40:21;;;;;;;15.50;4.10;;;;;;;19.96;51.28;100843.81;3552121;40;20068;-62
2023/07/03 08:42:56;;;;;;;13.82;3.60;;;;;;;20.09;50.72;100844.28;3553159;40;20425;-61
2023/07/03 08:45:37;;;;;;;10.57;3.50;;;;;;;20.21;50.56;100854.97;3551599;40;20053;-62
2023/07/03 08:48:14;;;;;;;11.73;4.03;;;;;;;20.23;49.32;100847.47;3552031;40;20057;-62
2023/07/03 08:50:51;;;;;;;16.38;4.15;;;;;;;20.21;49.17;100841.31;3551524;40;20057;-63
2023/07/03 08:53:28;;;;;;;11.57;3.58;;;;;;;20.39;49.72;100844.84;3554972;40;20384;-63
2023/07/03 08:56:14;;;;;;;11.88;3.78;;;;;;;20.39;50.37;100840.28;3552443;40;20130;-63
2023/07/03 08:58:40;;;;;;;11.68;4.07;;;;;;;20.22;49.95;100815.72;3552917;40;20053;-62
2023/07/03 09:01:29;;;;;;;16.08;4.30;;;;;;;20.37;49.60;100846.91;3542141;40;20065;-62
2023/07/03 09:04:19;;;;;;;12.82;4.35;;;;;;;20.24;48.60;100846.47;3552825;40;20085;-63
2023/07/03 09:07:00;;;;;;;14.32;4.13;;;;;;;20.20;48.63;100845.03;3552103;40;20052;-63
2023/07/03 09:10:06;;;;;;;14.45;3.90;;;;;;;20.27;49.89;100848.88;3553151;40;20437;-63
2023/07/03 09:12:50;;;;;;;14.75;3.92;;;;;;;20.28;47.98;100840.50;3547418;40;20080;-62
2023/07/03 09:16:07;;;;;;;12.60;4.10;;;;;;;20.41;48.51;100845.56;3551863;40;20127;-62
2023/07/03 09:18:49;;;;;;;13.77;4.20;;;;;;;20.65;47.66;100847.69;3544604;40;20161;-63
2023/07/03 09:21:14;;;;;;;15.40;4.80;;;;;;;20.59;48.17;100813.66;3532177;40;20053;-62
2023/07/03 09:24:05;;;;;;;12.95;4.05;;;;;;;20.86;47.21;100836.34;3554011;40;20064;-63
2023/07/03 09:27:02;;;;;;;14.20;4.15;;;;;;;20.81;46.65;100833.28;3552388;40;20049;-62
2023/07/03 09:29:34;;;;;;;14.52;4.65;;;;;;;20.73;47.46;100844.13;3551149;40;20060;-63
2023/07/03 09:31:59;;;;;;;13.07;4.63;;;;;;;20.67;48.63;100842.03;3551576;40;20057;-62
2023/07/03 09:34:25;;;;;;;11.88;4.28;;;;;;;20.61;48.17;100847.16;3552041;40;20069;-62
2023/07/03 09:36:58;;;;;;;15.40;3.80;;;;;;;20.53;48.19;100830.69;3552263;40;20057;-62
2023/07/03 09:39:25;;;;;;;13.43;4.30;;;;;;;20.64;48.33;100849.53;3554184;40;20311;-63
2023/07/03 09:41:53;;;;;;;13.55;4.18;;;;;;;20.81;48.77;100852.41;3551328;40;20483;-63
2023/07/03 09:44:22;;;;;;;13.75;4.28;;;;;;;21.02;47.56;100846.53;3552455;40;20136;-62
2023/07/03 09:46:48;;;;;;;11.75;3.88;;;;;;;21.16;46.79;100845.06;3549426;40;20400;-63
2023/07/03 09:49:26;;;;;;;15.95;4.90;;;;;;;21.36;47.25;100849.28;3553001;40;20065;-62
2023/07/03 09:51:53;;;;;;;13.82;3.95;;;;;;;21.45;45.31;100848.31;3551026;40;20123;-62
2023/07/03 09:54:25;;;;;;;11.07;4.00;;;;;;;21.61;45.09;100846.66;3551310;40;20068;-63
2023/07/03 09:56:51;;;;;;;14.37;4.53;;;;;;;21.64;44.80;100851.78;3550565;40;20164;-63
2023/07/03 09:59:20;;;;;;;13.35;4.35;;;;;;;21.49;43.67;100855.16;3551354;40;20287;-62
2023/07/03 10:01:48;;;;;;;13.07;3.70;;;;;;;21.26;42.27;100849.38;3551734;40;20704;-62
2023/07/03 10:04:17;;;;;;;11.57;3.70;;;;;;;21.42;42.36;100831.38;3550807;40;21336;-63
2023/07/03 10:06:59;;;;;;;10.50;3.90;;;;;;;21.81;42.51;100867.22;3550398;40;20297;-62
2023/07/03 10:09:32;;;;;;;13.43;3.93;;;;;;;21.79;41.42;100855.59;3554026;40;20135;-62
2023/07/03 10:12:09;;;;;;;13.48;4.10;;;;;;;21.93;41.52;100857.66;3549070;40;20056;-63
2023/07/03 10:14:52;;;;;;;13.05;3.72;;;;;;;22.09;41.17;100862.31;3553654;40;20049;-63
2023/07/03 10:17:31;;;;;;;8.60;3.45;;;;;;;22.35;40.53;100839.44;3552778;40;20053;-63
2023/07/03 10:20:03;;;;;;;12.93;3.97;;;;;;;22.86;39.63;100862.84;3552464;40;20057;-63
2023/07/03 10:22:31;;;;;;;15.63;4.17;;;;;;;22.89;39.45;100864.38;3552699;40;20057;-63
2023/07/03 10:25:06;;;;;;;9.00;3.20;;;;;;;23.08;38.66;100864.03;3552754;40;20060;-63
2023/07/03 10:27:36;;;;;;;9.10;3.78;;;;;;;23.00;38.60;100860.47;3552321;40;20285;-63
2023/07/03 10:30:15;;;;;;;11.82;3.80;;;;;;;22.70;38.94;100865.59;3551439;40;20076;-63
2023/07/03 10:32:47;;;;;;;12.18;3.90;;;;;;;22.57;40.53;100876.25;3552543;40;20448;-63
2023/07/03 10:35:27;;;;;;;12.30;3.65;;;;;;;22.37;39.47;100876.59;3553130;40;20715;-63
2023/07/03 10:38:13;;;;;;;12.02;3.83;;;;;;;22.30;39.64;100870.09;3550017;40;20065;-62
2023/07/03 10:41:08;;;;;;;12.02;3.70;;;;;;;22.24;39.23;100876.25;3551492;40;20065;-63
2023/07/03 10:43:55;;;;;;;9.90;3.28;;;;;;;22.12;39.27;100874.81;3551852;40;20064;-62
2023/07/03 10:46:39;;;;;;;10.27;3.50;;;;;;;21.84;39.43;100877.84;3549230;40;20118;-63
2023/07/03 10:49:26;;;;;;;14.50;3.17;;;;;;;21.65;39.77;100876.25;3549257;40;20276;-61
2023/07/03 10:52:11;;;;;;;12.70;3.28;;;;;;;21.62;40.85;100870.25;3551368;40;20069;-62
2023/07/03 10:54:58;;;;;;;14.07;3.65;;;;;;;21.77;40.90;100885.00;3550433;40;20088;-63
2023/07/03 10:58:09;;;;;;;10.63;3.08;;;;;;;21.97;40.35;100883.69;3548917;40;20180;-63
2023/07/03 11:01:13;;;;;;;11.15;3.08;;;;;;;22.18;38.70;100874.19;3545599;40;20053;-63
2023/07/03 11:04:24;;;;;;;7.85;2.78;;;;;;;22.45;39.15;100873.88;3548479;40;20466;-63
2023/07/03 11:07:18;;;;;;;8.32;3.08;;;;;;;23.00;38.54;100874.19;3552672;40;20061;-62
2023/07/03 11:10:17;;;;;;;9.18;2.60;;;;;;;23.36;37.54;100867.19;3554734;40;20049;-59
2023/07/03 11:12:59;;;;;;;9.27;2.58;;;;;;;23.66;37.19;100867.41;3553067;40;20089;-63
2023/07/03 11:16:01;;;;;;;10.73;2.55;;;;;;;24.17;36.08;100878.81;3553678;40;20384;-63
2023/07/03 11:18:57;;;;;;;8.95;2.80;;;;;;;24.21;34.72;100882.03;3552517;40;20042;-61
2023/07/03 11:22:12;;;;;;;10.10;3.03;;;;;;;23.71;34.53;100870.50;3547581;40;20130;-61
2023/07/03 11:25:13;;;;;;;9.65;2.67;;;;;;;23.06;35.34;100860.63;3551329;40;20550;-63
2023/07/03 11:28:24;;;;;;;13.88;2.85;;;;;;;22.40;38.88;100876.25;3554268;40;20084;-62
2023/07/03 11:30:50;;;;;;;10.95;2.83;;;;;;;21.51;40.16;100864.06;3547442;40;20177;-63
2023/07/03 11:33:18;;;;;;;5.97;2.15;;;;;;;21.65;40.10;100872.66;3546400;40;20397;-62
2023/07/03 11:35:56;;;;;;;9.45;2.60;;;;;;;21.90;39.73;100874.44;3552373;40;20068;-62